Terminal Aerodrome Forecast
Issued by NWS

Home | Current Version | Previous Version | Text Only | Print | Product List | Glossary On
Versions: 1 2 3 4 5 6 7 8 9 10 11 12 13 14 15
000
FTUS45 KSLC 230535
TAFPVU
TAF
KPVU 230535Z 2306/2406 14006KT P6SM SCT040 BKN080
     FM230800 VRB04KT P6SM VCSH SCT020 BKN040
     FM231400 32010KT 2SM -SN SCT007 BKN015
     FM231900 33012G20KT P6SM VCSH SCT020 BKN040
     FM232200 33015G25KT P6SM SCT040 BKN080
     FM240300 VRB04KT P6SM SCT080 BKN120=

USA.gov is the U.S. government's official web portal to all federal, state and local government web resources and services.